WICT2: Wichita River At Wichita Falls, TX

Data processed at Sat Mar 10 2018 23:57


All information presented herein is the property of the government of the United States of America and may be revised or deleted at any time without prior notice.
Dissemination of this information without the expressed written consent of the Public Affairs Office, Tulsa District U.S. Army Corps of Engineers is strictly prohibited.
These data are gathered electronically and, as presented, have not undergone any form of quality control. These data are not guaranteed to be valid or correct.
Go to home page.
Go to station list.

Upstream stations:

Downstream station:
Previous Day
Next Day
Current Day
    
SHEF ID:       WICT2     Wichita Rv at Wichita Falls, TX
STATION TYPE:  

               PRECIP     STAGE  RIV-FLOW  WTR-TEMP   CONDUCT  BAT-LOAD
                   in        ft       cfs         F   umho/cm      volt
              Ccp-Rev   Ccp-Rev   Ccp-Rev   Ccp-Rev   Ccp-Rev   Ccp-Rev
(US/Central)
03/08 00:00      0.00      2.49        24     54.52      5118     12.49
03/08 01:00      0.00      2.49        24     54.14      5115     12.49
03/08 02:00      0.00      2.49        24     53.80      5095     12.41
03/08 03:00      0.00      2.49        24     53.42      5088     12.41
03/08 04:00      0.00      2.49        24     52.99      5081     12.41
03/08 05:00      0.00      2.49        24     52.50      5070     12.33
03/08 06:00      0.00      2.49        24     52.07      5062     12.33
03/08 07:00      0.00      2.49        24     51.58      5048     12.33
03/08 08:00      0.00      2.49        24     51.15      5043     12.41
03/08 09:00      0.00      2.49        24     50.88      5046     13.37
03/08 10:00      0.00      2.50        25     51.17      5068     13.92
03/08 11:00      0.00      2.51        25     52.07      5094     13.68
03/08 12:00      0.00      2.50        25     53.49      5127     13.21
03/08 13:00      0.00      2.50        25     55.08      5171     13.21
03/08 14:00      0.00      2.50        25     56.64      5193     12.97
03/08 15:00      0.00      2.50        25     57.70      5222     13.05
03/08 16:00      0.00      2.50        25     58.55      5230     12.97
03/08 17:00      0.00      2.50        25     58.93      5225     12.81
03/08 18:00      0.00      2.50        25     58.66      5210     12.81
03/08 19:00      0.00      2.50        25     58.14      5195     12.65
03/08 20:00      0.00      2.50        25     57.54      5189     12.65
03/08 21:00      0.00      2.50        25     56.95      5172     12.65
03/08 22:00      0.00      2.50        25     56.34      5068     12.57
03/08 23:00      0.00      2.49        24     55.92      5156     12.57